createdAt,value
2023-01-28T00:01:59.216Z,13.77
2023-01-28T00:05:00.135Z,14.13
2023-01-28T00:08:01.042Z,14.35
2023-01-28T00:11:03.453Z,14.73
2023-01-28T00:14:04.955Z,15.00
2023-01-28T00:17:06.656Z,14.00
2023-01-28T00:20:08.391Z,15.35
2023-01-28T00:23:09.233Z,13.68
2023-01-28T00:26:15.511Z,14.18
2023-01-28T00:29:17.911Z,14.50
2023-01-28T00:32:18.848Z,14.55
2023-01-28T00:35:19.639Z,14.65
2023-01-28T00:38:20.658Z,14.80
2023-01-28T00:41:24.740Z,15.90
2023-01-28T00:44:25.237Z,15.30
2023-01-28T00:47:26.226Z,15.43
2023-01-28T00:50:27.063Z,16.38
2023-01-28T00:53:28.891Z,16.10
2023-01-28T00:56:30.072Z,17.33
2023-01-28T00:59:30.884Z,15.90
2023-01-28T01:02:32.209Z,16.70
2023-01-28T01:05:34.059Z,15.85
2023-01-28T01:08:35.810Z,15.43
2023-01-28T01:11:37.199Z,16.83
2023-01-28T01:14:38.377Z,16.60
2023-01-28T01:17:40.848Z,16.33
2023-01-28T01:20:45.633Z,15.38
2023-01-28T01:23:47.517Z,15.57
2023-01-28T01:26:48.633Z,16.17
2023-01-28T01:29:49.633Z,15.70
2023-01-28T01:32:50.515Z,15.43
2023-01-28T01:35:57.545Z,16.23
2023-01-28T01:39:00.351Z,16.23
2023-01-28T01:42:01.920Z,14.88
2023-01-28T01:45:06.329Z,15.63
2023-01-28T01:48:15.807Z,15.40
2023-01-28T01:51:22.053Z,14.60
2023-01-28T01:54:26.689Z,15.18
2023-01-28T01:57:31.220Z,14.38
2023-01-28T02:00:31.764Z,15.20
2023-01-28T02:03:41.579Z,14.60
2023-01-28T02:06:42.970Z,14.30
2023-01-28T02:09:44.031Z,13.75
2023-01-28T02:12:56.801Z,13.60
2023-01-28T02:16:01.897Z,13.80
2023-01-28T02:19:02.837Z,13.48
2023-01-28T02:22:10.801Z,13.18
2023-01-28T02:25:35.133Z,12.43
2023-01-28T02:29:01.223Z,14.25
2023-01-28T02:32:15.932Z,11.10
2023-01-28T02:35:22.823Z,13.30
2023-01-28T02:38:35.548Z,10.52
2023-01-28T02:41:46.860Z,13.90
2023-01-28T02:44:48.499Z,14.40
2023-01-28T02:47:58.296Z,14.52
2023-01-28T02:51:20.264Z,14.07
2023-01-28T02:54:29.768Z,13.77
2023-01-28T02:58:11.988Z,14.77
2023-01-28T03:01:25.680Z,15.02
2023-01-28T03:04:34.932Z,14.15
2023-01-28T03:07:38.677Z,14.93
2023-01-28T03:10:39.259Z,14.07
2023-01-28T03:14:00.905Z,14.55
2023-01-28T03:17:22.585Z,13.98
2023-01-28T03:20:46.093Z,13.93
2023-01-28T03:24:17.869Z,12.80
2023-01-28T03:27:41.337Z,13.65
2023-01-28T03:31:15.725Z,14.20
2023-01-28T03:34:42.057Z,14.48
2023-01-28T03:37:43.068Z,14.43
2023-01-28T03:40:53.277Z,15.75
2023-01-28T03:43:54.941Z,15.68
2023-01-28T03:46:56.034Z,15.75
2023-01-28T03:49:59.960Z,15.60
2023-01-28T03:53:15.907Z,15.63
2023-01-28T03:56:24.545Z,15.20
2023-01-28T03:59:27.333Z,14.85
2023-01-28T04:02:28.550Z,14.35
2023-01-28T04:05:29.675Z,16.17
2023-01-28T04:08:32.338Z,15.27
2023-01-28T04:12:00.116Z,14.25
2023-01-28T04:15:17.519Z,15.80
2023-01-28T04:18:21.019Z,14.27
2023-01-28T04:21:24.269Z,14.63
2023-01-28T04:24:25.447Z,13.35
2023-01-28T04:27:26.814Z,15.32
2023-01-28T04:30:28.701Z,14.45
2023-01-28T04:33:39.368Z,15.20
2023-01-28T04:37:09.500Z,15.10
2023-01-28T04:40:36.777Z,15.35
2023-01-28T04:43:46.476Z,14.45
2023-01-28T04:47:06.247Z,14.50
2023-01-28T04:50:19.328Z,14.02
2023-01-28T04:53:46.368Z,14.43
2023-01-28T04:57:05.464Z,15.43
2023-01-28T05:00:06.937Z,15.02
2023-01-28T05:03:07.775Z,15.20
2023-01-28T05:06:09.175Z,15.13
2023-01-28T05:09:30.643Z,14.45
2023-01-28T05:12:33.184Z,14.88
2023-01-28T05:15:36.835Z,16.55
2023-01-28T05:18:37.900Z,15.57
2023-01-28T05:21:43.355Z,13.77
2023-01-28T05:25:08.672Z,15.07
2023-01-28T05:28:09.315Z,14.68
2023-01-28T05:31:11.635Z,15.60
2023-01-28T05:34:12.949Z,15.30
2023-01-28T05:37:13.704Z,15.23
2023-01-28T05:40:15.401Z,14.93
2023-01-28T05:43:16.570Z,15.73
2023-01-28T05:46:20.644Z,14.82
2023-01-28T05:49:36.740Z,15.70
2023-01-28T05:52:56.053Z,14.80
2023-01-28T05:56:01.687Z,14.55
2023-01-28T05:59:05.750Z,14.98
2023-01-28T06:02:07.767Z,14.93
2023-01-28T06:05:10.118Z,14.88
2023-01-28T06:08:11.832Z,14.77
2023-01-28T06:11:12.638Z,13.70
2023-01-28T06:14:14.154Z,14.38
2023-01-28T06:17:33.292Z,13.25
2023-01-28T06:20:42.247Z,12.85
2023-01-28T06:23:44.053Z,14.43
2023-01-28T06:26:45.213Z,14.30
2023-01-28T06:29:46.229Z,14.80
2023-01-28T06:32:47.069Z,13.93
2023-01-28T06:35:48.369Z,14.05
2023-01-28T06:38:49.199Z,14.45
2023-01-28T06:41:50.704Z,14.27
2023-01-28T06:44:51.608Z,13.93
2023-01-28T06:47:52.362Z,13.82
2023-01-28T06:50:54.283Z,13.73
2023-01-28T06:53:54.925Z,13.98
2023-01-28T06:56:55.703Z,15.50
2023-01-28T06:59:56.650Z,14.38
2023-01-28T07:02:58.210Z,14.43
2023-01-28T07:05:59.092Z,13.75
2023-01-28T07:09:00.042Z,14.45
2023-01-28T07:12:00.730Z,14.02
2023-01-28T07:15:01.576Z,13.15
2023-01-28T07:18:03.098Z,15.27
2023-01-28T07:21:04.292Z,13.55
2023-01-28T07:24:06.341Z,14.10
2023-01-28T07:27:07.466Z,14.35
2023-01-28T07:30:09.197Z,14.40
2023-01-28T07:33:10.268Z,13.00
2023-01-28T07:36:10.821Z,13.23
2023-01-28T07:39:11.751Z,12.85
2023-01-28T07:42:12.460Z,12.48
2023-01-28T07:45:20.394Z,12.65
2023-01-28T07:48:21.338Z,13.60
2023-01-28T07:51:22.338Z,13.88
2023-01-28T07:54:23.127Z,12.98
2023-01-28T07:57:24.018Z,14.02
2023-01-28T08:00:26.191Z,14.13
2023-01-28T08:03:28.307Z,14.23
2023-01-28T08:06:29.565Z,12.50
2023-01-28T08:09:30.442Z,13.27
2023-01-28T08:12:31.320Z,11.80
2023-01-28T08:15:34.997Z,12.77
2023-01-28T08:18:36.008Z,12.95
2023-01-28T08:21:36.632Z,12.38
2023-01-28T08:24:37.471Z,13.07
2023-01-28T08:27:38.426Z,12.20
2023-01-28T08:30:39.424Z,11.88
2023-01-28T08:33:40.368Z,13.40
2023-01-28T08:36:41.287Z,12.00
2023-01-28T08:39:44.317Z,12.95
2023-01-28T08:42:51.490Z,12.68
2023-01-28T08:45:52.542Z,13.13
2023-01-28T08:48:53.536Z,12.02
2023-01-28T08:51:55.703Z,12.32
2023-01-28T08:54:57.034Z,10.75
2023-01-28T08:57:58.755Z,9.70
2023-01-28T09:01:04.973Z,9.38
2023-01-28T09:04:05.783Z,8.52
2023-01-28T09:07:06.305Z,9.10
2023-01-28T09:10:07.500Z,10.18
2023-01-28T09:13:14.530Z,8.93
2023-01-28T09:16:15.368Z,8.68
2023-01-28T09:19:16.447Z,7.88
2023-01-28T09:22:17.719Z,7.80
2023-01-28T09:25:18.848Z,7.82
2023-01-28T09:28:19.845Z,9.18
2023-01-28T09:31:20.835Z,9.65
2023-01-28T09:34:21.815Z,8.98
2023-01-28T09:37:22.762Z,6.63
2023-01-28T09:40:43.619Z,7.80
2023-01-28T09:43:50.487Z,8.75
2023-01-28T09:46:51.966Z,8.00
2023-01-28T09:49:57.227Z,9.15
2023-01-28T09:53:04.910Z,8.65
2023-01-28T09:56:17.193Z,8.73
2023-01-28T09:59:21.377Z,9.05
2023-01-28T10:02:32.344Z,9.52
2023-01-28T10:05:55.781Z,8.00
2023-01-28T10:09:20.603Z,8.43
2023-01-28T10:12:58.752Z,9.43
2023-01-28T10:16:08.856Z,8.98
2023-01-28T10:19:30.779Z,8.93
2023-01-28T10:22:39.532Z,8.98
2023-01-28T10:25:45.213Z,8.07
2023-01-28T10:28:50.556Z,8.98
2023-01-28T10:31:54.511Z,8.75
2023-01-28T10:34:56.520Z,9.07
2023-01-28T10:38:02.513Z,9.65
2023-01-28T10:41:04.743Z,8.25
2023-01-28T10:44:06.059Z,9.27
2023-01-28T10:47:15.624Z,8.95
2023-01-28T10:50:24.323Z,9.68
2023-01-28T10:53:37.599Z,8.75
2023-01-28T10:56:38.565Z,8.18
2023-01-28T10:59:43.040Z,8.23
2023-01-28T11:02:44.112Z,8.20
2023-01-28T11:05:52.318Z,7.80
2023-01-28T11:08:53.343Z,8.02
2023-01-28T11:11:54.511Z,7.70
2023-01-28T11:14:56.589Z,7.25
2023-01-28T11:18:15.782Z,7.40
2023-01-28T11:21:27.954Z,7.23
2023-01-28T11:24:31.346Z,7.10
2023-01-28T11:27:33.358Z,7.03
2023-01-28T11:30:40.606Z,6.15
2023-01-28T11:34:02.304Z,6.40
2023-01-28T11:37:11.547Z,6.25
2023-01-28T11:40:21.461Z,6.70
2023-01-28T11:43:26.322Z,7.15
2023-01-28T11:46:52.351Z,6.78
2023-01-28T11:50:11.279Z,7.45
2023-01-28T11:53:42.823Z,7.47
2023-01-28T11:57:04.820Z,7.72
2023-01-28T12:00:30.218Z,7.90
2023-01-28T12:03:58.155Z,8.55
2023-01-28T12:07:24.056Z,8.57
2023-01-28T12:10:57.567Z,7.85
2023-01-28T12:14:21.713Z,7.57
2023-01-28T12:17:38.423Z,7.70
2023-01-28T12:20:47.130Z,7.82
2023-01-28T12:24:02.928Z,8.80
2023-01-28T12:27:40.861Z,9.27
2023-01-28T12:31:05.659Z,8.82
2023-01-28T12:34:31.881Z,8.20
2023-01-28T12:37:47.416Z,9.03
2023-01-28T12:40:57.823Z,10.02
2023-01-28T12:44:10.338Z,7.88
2023-01-28T12:47:15.964Z,9.63
2023-01-28T12:50:31.701Z,8.95
2023-01-28T12:53:45.748Z,8.73
2023-01-28T12:56:52.851Z,8.77
2023-01-28T13:00:03.295Z,9.07
2023-01-28T13:03:31.506Z,8.43
2023-01-28T13:06:44.458Z,9.43
2023-01-28T13:10:17.774Z,9.40
2023-01-28T13:13:33.926Z,8.52
2023-01-28T13:16:37.913Z,9.15
2023-01-28T13:19:42.634Z,8.70
2023-01-28T13:22:45.432Z,8.35
2023-01-28T13:25:51.608Z,9.43
2023-01-28T13:28:53.924Z,8.02
2023-01-28T13:32:03.016Z,9.52
2023-01-28T13:35:08.221Z,9.27
2023-01-28T13:38:20.416Z,9.38
2023-01-28T13:41:21.304Z,8.35
2023-01-28T13:44:33.911Z,10.32
2023-01-28T13:47:37.715Z,9.85
2023-01-28T13:50:42.177Z,9.80
2023-01-28T13:53:57.792Z,11.07
2023-01-28T13:57:01.581Z,10.07
2023-01-28T14:00:40.384Z,10.43
2023-01-28T14:04:15.001Z,9.98
2023-01-28T14:07:45.247Z,10.85
2023-01-28T14:11:12.060Z,9.85
2023-01-28T14:14:40.193Z,8.82
2023-01-28T14:17:53.517Z,10.10
2023-01-28T14:21:00.629Z,8.88
2023-01-28T14:24:01.654Z,10.07
2023-01-28T14:27:07.566Z,8.80
2023-01-28T14:30:24.868Z,8.98
2023-01-28T14:36:26.615Z,9.85
2023-01-28T14:39:31.032Z,9.43
2023-01-28T14:42:41.363Z,9.20
2023-01-28T14:46:32.189Z,10.43
2023-01-28T14:49:37.552Z,8.45
2023-01-28T14:52:40.536Z,9.38
2023-01-28T14:56:08.698Z,8.68
2023-01-28T14:59:23.542Z,9.20
2023-01-28T15:02:27.311Z,9.02
2023-01-28T15:05:29.461Z,8.68
2023-01-28T15:08:32.491Z,9.80
2023-01-28T15:11:36.137Z,8.80
2023-01-28T15:14:37.039Z,9.00
2023-01-28T15:17:37.957Z,8.07
2023-01-28T15:20:39.428Z,7.97
2023-01-28T15:23:43.194Z,8.98
2023-01-28T15:26:47.646Z,8.32
2023-01-28T15:29:53.990Z,8.52
2023-01-28T15:33:15.449Z,8.88
2023-01-28T15:36:16.807Z,8.07
2023-01-28T15:39:21.240Z,8.40
2023-01-28T15:42:26.625Z,8.45
2023-01-28T15:45:29.459Z,8.43
2023-01-28T15:48:33.987Z,9.70
2023-01-28T15:51:36.446Z,9.98
2023-01-28T15:54:43.215Z,9.95
2023-01-28T15:57:44.107Z,10.05
2023-01-28T16:00:46.110Z,10.00
2023-01-28T16:04:00.903Z,8.85
2023-01-28T16:07:05.170Z,8.40
2023-01-28T16:10:06.354Z,8.65
2023-01-28T16:13:19.775Z,8.73
2023-01-28T16:16:35.998Z,9.32
2023-01-28T16:19:43.129Z,9.77
2023-01-28T16:22:43.970Z,8.00
2023-01-28T16:25:45.007Z,10.30
2023-01-28T16:28:45.885Z,9.82
2023-01-28T16:31:46.962Z,10.70
2023-01-28T16:34:47.896Z,9.32
2023-01-28T16:37:49.806Z,9.00
2023-01-28T16:40:50.879Z,10.25
2023-01-28T16:43:51.438Z,9.57
2023-01-28T16:46:52.540Z,9.90
2023-01-28T16:49:53.694Z,9.25
2023-01-28T16:52:55.788Z,9.38
2023-01-28T16:55:56.537Z,9.90
2023-01-28T16:58:57.786Z,10.13
2023-01-28T17:01:58.570Z,11.57
2023-01-28T17:04:59.429Z,11.15
2023-01-28T17:08:00.291Z,12.10
2023-01-28T17:11:01.223Z,11.77
2023-01-28T17:14:02.506Z,13.55
2023-01-28T17:17:03.191Z,13.48
2023-01-28T17:20:05.101Z,13.68
2023-01-28T17:23:15.670Z,13.32
2023-01-28T17:26:17.505Z,12.20
2023-01-28T17:29:18.579Z,12.48
2023-01-28T17:32:19.572Z,12.18
2023-01-28T17:35:20.319Z,12.60
2023-01-28T17:38:21.248Z,11.63
2023-01-28T17:41:22.462Z,11.85
2023-01-28T17:44:23.511Z,12.50
2023-01-28T17:47:24.142Z,10.82
2023-01-28T17:50:25.140Z,11.75
2023-01-28T17:53:25.901Z,11.07
2023-01-28T17:56:28.737Z,13.13
2023-01-28T17:59:29.556Z,12.80
2023-01-28T18:02:30.247Z,11.13
2023-01-28T18:05:31.062Z,11.27
2023-01-28T18:08:32.043Z,10.90
2023-01-28T18:11:33.112Z,12.10
2023-01-28T18:14:34.715Z,12.35
2023-01-28T18:17:36.711Z,11.35
2023-01-28T18:20:37.656Z,12.00
2023-01-28T18:23:38.791Z,11.98
2023-01-28T18:26:39.596Z,14.25
2023-01-28T18:29:40.575Z,13.13
2023-01-28T18:32:41.579Z,14.18
2023-01-28T18:35:43.741Z,14.85
2023-01-28T18:38:45.695Z,12.70
2023-01-28T18:41:46.982Z,15.20
2023-01-28T18:44:47.671Z,14.85
2023-01-28T18:47:48.410Z,13.55
2023-01-28T18:50:56.405Z,15.85
2023-01-28T18:54:02.270Z,14.68
2023-01-28T18:57:03.245Z,14.38
2023-01-28T19:00:05.626Z,13.85
2023-01-28T19:03:12.848Z,14.90
2023-01-28T19:06:15.691Z,13.07
2023-01-28T19:09:17.731Z,14.43
2023-01-28T19:12:19.881Z,13.27
2023-01-28T19:15:22.524Z,15.25
2023-01-28T19:18:24.291Z,14.82
2023-01-28T19:21:25.778Z,15.50
2023-01-28T19:24:26.763Z,14.02
2023-01-28T19:27:27.640Z,14.25
2023-01-28T19:30:28.443Z,14.18
2023-01-28T19:33:29.668Z,14.07
2023-01-28T19:36:32.758Z,14.05
2023-01-28T19:39:33.338Z,13.10
2023-01-28T19:42:34.565Z,13.88
2023-01-28T19:45:35.419Z,15.40
2023-01-28T19:48:36.572Z,14.30
2023-01-28T19:51:37.436Z,14.35
2023-01-28T19:54:38.503Z,15.80
2023-01-28T19:57:39.588Z,14.77
2023-01-28T20:00:40.912Z,14.02
2023-01-28T20:03:42.906Z,14.65
2023-01-28T20:06:43.724Z,14.13
2023-01-28T20:09:44.474Z,14.85
2023-01-28T20:12:45.461Z,14.90
2023-01-28T20:15:46.581Z,14.63
2023-01-28T20:19:02.088Z,15.38
2023-01-28T20:22:02.861Z,14.70
2023-01-28T20:25:04.095Z,15.77
2023-01-28T20:28:04.945Z,13.95
2023-01-28T20:31:08.669Z,16.15
2023-01-28T20:34:16.030Z,14.48
2023-01-28T20:37:16.585Z,13.82
2023-01-28T20:40:17.567Z,16.33
2023-01-28T20:43:18.441Z,15.23
2023-01-28T20:46:25.089Z,14.95
2023-01-28T20:49:28.134Z,15.13
2023-01-28T20:52:29.189Z,15.77
2023-01-28T20:55:31.551Z,15.02
2023-01-28T20:58:33.347Z,14.90
2023-01-28T21:01:35.624Z,15.18
2023-01-28T21:04:36.615Z,14.90
2023-01-28T21:07:37.684Z,14.65
2023-01-28T21:10:39.376Z,14.45
2023-01-28T21:13:40.518Z,14.75
2023-01-28T21:16:42.550Z,14.93
2023-01-28T21:19:43.484Z,14.88
2023-01-28T21:22:44.518Z,15.15
2023-01-28T21:25:47.258Z,15.48
2023-01-28T21:28:48.243Z,14.38
2023-01-28T21:31:49.178Z,14.93
2023-01-28T21:34:49.876Z,14.35
2023-01-28T21:37:50.691Z,15.23
2023-01-28T21:40:51.619Z,13.73
2023-01-28T21:43:54.475Z,14.23
2023-01-28T21:46:55.490Z,15.63
2023-01-28T21:49:57.878Z,14.77
2023-01-28T21:52:58.746Z,17.20
2023-01-28T21:55:59.563Z,15.13
2023-01-28T21:59:19.123Z,14.15
2023-01-28T22:02:22.761Z,16.88
2023-01-28T22:05:24.762Z,14.93
2023-01-28T22:08:25.759Z,15.60
2023-01-28T22:11:26.684Z,15.00
2023-01-28T22:14:27.697Z,15.20
2023-01-28T22:17:28.579Z,15.43
2023-01-28T22:20:31.390Z,16.42
2023-01-28T22:23:32.483Z,16.95
2023-01-28T22:26:33.061Z,15.85
2023-01-28T22:29:33.767Z,16.25
2023-01-28T22:32:34.659Z,15.35
2023-01-28T22:35:35.680Z,16.65
2023-01-28T22:38:37.080Z,15.80
2023-01-28T22:41:38.472Z,16.05
2023-01-28T22:44:39.133Z,15.65
2023-01-28T22:47:40.153Z,15.45
2023-01-28T22:50:41.058Z,14.35
2023-01-28T22:53:42.059Z,15.40
2023-01-28T22:56:43.494Z,16.02
2023-01-28T22:59:59.235Z,16.10
2023-01-28T23:03:01.379Z,15.55
2023-01-28T23:06:04.711Z,14.02
2023-01-28T23:09:05.375Z,15.68
2023-01-28T23:12:07.495Z,14.90
2023-01-28T23:15:28.728Z,17.25
2023-01-28T23:18:49.004Z,16.63
2023-01-28T23:22:09.208Z,15.60
2023-01-28T23:25:10.404Z,17.27
2023-01-28T23:28:11.504Z,17.90
2023-01-28T23:31:12.381Z,18.02
2023-01-28T23:34:17.259Z,19.10
2023-01-28T23:37:18.344Z,17.33
2023-01-28T23:40:21.081Z,17.77
2023-01-28T23:43:22.304Z,17.70
2023-01-28T23:46:37.800Z,16.83
2023-01-28T23:49:40.835Z,17.23
2023-01-28T23:52:41.615Z,17.15
2023-01-28T23:55:42.486Z,17.88
2023-01-28T23:58:44.202Z,16.95
